Spokane, Washington
Current Conditions -  °F | °C
As of 1:53 AM on Sunday 26 Oct 2014 (Local Time) from KSFF Reporting Station
Few Clouds Few Clouds  
Wind Chill: 50°   Ceiling: Unl
Heat Index: 50°   Visibility: 10mi
Dew Point: 37°   Wind: 28mph
Humidity: 61%   Direction: 220°SW
Pressure: 29.72"   Gusts: 38mph
Location:  47.66°N, 117.41°W
Report Text: KSFF 260853Z AUTO 22024G33KT 10SM FEW065 10/03 A2972 RMK AO2 PK WND 21038/0811 SLP059 T01000028 53035
Loading
Personal Weather Stations






























Interactive Weather Map
Tropical Storm Tracking
New forecast layout! Learn more

10-Day Weather Forecast

Advertisements
Track Severe Weather on mobile